createdAt,value
2018-07-15T00:00:13.450Z,3.73
2018-07-15T00:04:56.953Z,4.17
2018-07-15T00:09:40.567Z,3.83
2018-07-15T00:14:24.048Z,4.13
2018-07-15T00:19:08.850Z,3.97
2018-07-15T00:23:52.507Z,3.80
2018-07-15T00:28:37.058Z,3.87
2018-07-15T00:33:20.612Z,3.77
2018-07-15T00:38:05.292Z,3.77
2018-07-15T00:42:48.908Z,4.00
2018-07-15T00:47:37.126Z,3.23
2018-07-15T00:52:20.583Z,4.00
2018-07-15T00:57:07.209Z,3.60
2018-07-15T01:01:50.545Z,3.53
2018-07-15T01:06:37.358Z,3.50
2018-07-15T01:11:20.908Z,3.30
2018-07-15T01:16:04.614Z,3.73
2018-07-15T01:20:47.894Z,3.57
2018-07-15T01:25:31.584Z,3.80
2018-07-15T01:30:18.765Z,3.50
2018-07-15T01:35:02.347Z,3.30
2018-07-15T01:39:49.005Z,3.40
2018-07-15T01:44:32.594Z,3.70
2018-07-15T01:49:17.245Z,3.53
2018-07-15T01:54:00.909Z,4.03
2018-07-15T01:58:49.368Z,3.47
2018-07-15T02:03:33.062Z,3.60
2018-07-15T02:08:16.899Z,3.77
2018-07-15T02:13:00.419Z,3.73
2018-07-15T02:17:48.101Z,3.30
2018-07-15T02:22:31.601Z,2.90
2018-07-15T02:27:18.908Z,3.33
2018-07-15T02:32:03.289Z,3.60
2018-07-15T02:36:49.943Z,3.30
2018-07-15T02:41:33.474Z,3.67
2018-07-15T02:46:18.131Z,3.60
2018-07-15T02:51:01.678Z,3.20
2018-07-15T02:55:45.237Z,3.40
2018-07-15T03:00:29.878Z,3.10
2018-07-15T03:05:13.517Z,3.30
2018-07-15T03:10:00.445Z,3.43
2018-07-15T03:14:43.932Z,3.33
2018-07-15T03:19:28.553Z,3.10
2018-07-15T03:24:12.119Z,2.77
2018-07-15T03:28:56.881Z,3.70
2018-07-15T03:33:40.402Z,3.40
2018-07-15T03:38:27.807Z,3.30
2018-07-15T03:43:11.470Z,3.50
2018-07-15T03:47:55.121Z,3.77
2018-07-15T03:52:38.854Z,3.57
2018-07-15T03:57:26.354Z,3.63
2018-07-15T04:02:09.888Z,3.80
2018-07-15T04:07:02.735Z,3.80
2018-07-15T04:11:46.347Z,4.00
2018-07-15T04:16:33.097Z,3.60
2018-07-15T04:21:16.716Z,4.13
2018-07-15T04:26:03.274Z,3.60
2018-07-15T04:30:46.789Z,3.60
2018-07-15T04:35:30.322Z,4.73
2018-07-15T04:40:17.951Z,3.67
2018-07-15T04:45:01.471Z,3.57
2018-07-15T04:49:48.445Z,3.50
2018-07-15T04:54:32.004Z,3.73
2018-07-15T04:59:15.545Z,3.77
2018-07-15T05:03:59.114Z,3.90
2018-07-15T05:08:43.593Z,3.77
2018-07-15T05:13:27.083Z,3.90
2018-07-15T05:18:11.639Z,3.53
2018-07-15T05:22:55.106Z,3.93
2018-07-15T05:27:53.752Z,3.50
2018-07-15T05:32:37.104Z,3.97
2018-07-15T05:37:21.796Z,3.53
2018-07-15T05:42:05.265Z,3.80
2018-07-15T05:46:49.838Z,3.73
2018-07-15T05:51:33.461Z,4.07
2018-07-15T05:56:18.182Z,3.80
2018-07-15T06:01:01.653Z,3.50
2018-07-15T06:05:46.398Z,4.10
2018-07-15T06:10:29.986Z,3.90
2018-07-15T06:15:13.472Z,3.67
2018-07-15T06:20:03.001Z,3.50
2018-07-15T06:24:46.552Z,4.17
2018-07-15T06:29:34.490Z,4.27
2018-07-15T06:34:18.022Z,4.10
2018-07-15T06:39:01.849Z,4.00
2018-07-15T06:43:45.272Z,3.87
2018-07-15T06:48:31.968Z,3.60
2018-07-15T06:53:16.282Z,3.37
2018-07-15T06:58:01.047Z,3.17
2018-07-15T07:02:44.625Z,3.23
2018-07-15T07:07:28.494Z,3.20
2018-07-15T07:12:12.023Z,3.63
2018-07-15T07:16:55.907Z,3.87
2018-07-15T07:21:39.456Z,2.83
2018-07-15T07:26:26.382Z,3.00
2018-07-15T07:31:09.776Z,2.80
2018-07-15T07:35:53.374Z,2.93
2018-07-15T07:40:36.897Z,3.00
2018-07-15T07:45:20.389Z,2.90
2018-07-15T07:50:03.922Z,2.90
2018-07-15T07:54:47.591Z,3.53
2018-07-15T07:59:31.221Z,3.10
2018-07-15T08:04:14.584Z,2.80
2018-07-15T08:08:59.315Z,2.93
2018-07-15T08:13:42.860Z,3.17
2018-07-15T08:18:27.680Z,3.40
2018-07-15T08:23:11.087Z,2.70
2018-07-15T08:27:54.749Z,2.93
2018-07-15T08:32:38.337Z,2.60
2018-07-15T08:37:25.118Z,2.50
2018-07-15T08:42:08.705Z,2.60
2018-07-15T08:46:53.961Z,2.50
2018-07-15T08:51:39.044Z,3.10
2018-07-15T08:56:24.231Z,2.67
2018-07-15T09:01:08.401Z,2.80
2018-07-15T09:05:53.625Z,2.60
2018-07-15T09:10:38.048Z,2.70
2018-07-15T09:15:24.505Z,2.70
2018-07-15T09:20:09.150Z,2.80
2018-07-15T09:24:53.835Z,2.70
2018-07-15T09:29:37.986Z,2.73
2018-07-15T09:34:21.953Z,2.80
2018-07-15T09:39:10.192Z,2.73
2018-07-15T09:43:54.832Z,2.63
2018-07-15T09:48:38.982Z,2.60
2018-07-15T09:53:23.156Z,2.90
2018-07-15T09:58:08.596Z,2.87
2018-07-15T10:02:52.162Z,2.57
2018-07-15T10:07:36.127Z,2.37
2018-07-15T10:12:19.607Z,2.63
2018-07-15T10:17:04.586Z,3.30
2018-07-15T10:21:48.193Z,3.27
2018-07-15T10:26:34.856Z,2.80
2018-07-15T10:31:18.708Z,2.40
2018-07-15T10:36:02.862Z,2.70
2018-07-15T10:40:46.505Z,2.63
2018-07-15T10:45:33.741Z,2.50
2018-07-15T10:50:17.354Z,2.53
2018-07-15T10:55:00.960Z,2.80
2018-07-15T10:59:44.527Z,2.80
2018-07-15T11:04:28.110Z,2.40
2018-07-15T11:09:12.704Z,2.50
2018-07-15T11:13:56.397Z,2.65
2018-07-15T11:18:40.647Z,2.35
2018-07-15T11:23:24.188Z,2.30
2018-07-15T11:28:09.073Z,2.20
2018-07-15T11:32:52.737Z,2.45
2018-07-15T11:37:36.984Z,2.10
2018-07-15T11:42:23.194Z,2.10
2018-07-15T11:47:11.274Z,2.10
2018-07-15T11:51:56.217Z,2.10
2018-07-15T11:56:43.744Z,2.30
2018-07-15T12:01:27.670Z,2.50
2018-07-15T12:06:12.546Z,2.22
2018-07-15T12:10:56.722Z,2.42
2018-07-15T12:15:43.822Z,1.92
2018-07-15T12:20:27.566Z,2.58
2018-07-15T12:25:12.107Z,2.40
2018-07-15T12:29:56.389Z,2.12
2018-07-15T12:34:40.348Z,2.40
2018-07-15T12:39:24.150Z,2.40
2018-07-15T12:44:07.809Z,2.30
2018-07-15T12:48:52.379Z,2.50
2018-07-15T12:53:36.190Z,2.12
2018-07-15T12:58:22.988Z,2.20
2018-07-15T13:03:06.681Z,3.30
2018-07-15T13:07:51.001Z,2.30
2018-07-15T13:12:34.695Z,2.67
2018-07-15T13:17:22.431Z,2.33
2018-07-15T13:22:06.098Z,1.95
2018-07-15T13:26:50.731Z,2.42
2018-07-15T13:31:34.403Z,2.20
2018-07-15T13:36:21.046Z,2.62
2018-07-15T13:41:04.822Z,2.70
2018-07-15T13:45:51.575Z,2.40
2018-07-15T13:50:35.390Z,1.95
2018-07-15T13:55:22.927Z,2.33
2018-07-15T14:00:07.825Z,2.30
2018-07-15T14:04:54.860Z,2.00
2018-07-15T14:09:38.596Z,2.30
2018-07-15T14:14:22.826Z,2.30
2018-07-15T14:19:06.481Z,2.50
2018-07-15T14:23:49.992Z,2.45
2018-07-15T14:28:37.160Z,2.30
2018-07-15T14:33:20.879Z,2.15
2018-07-15T14:38:08.728Z,2.12
2018-07-15T14:42:52.610Z,2.55
2018-07-15T14:47:40.540Z,2.10
2018-07-15T14:52:24.298Z,2.33
2018-07-15T14:57:09.198Z,2.05
2018-07-15T15:01:54.089Z,2.20
2018-07-15T15:06:38.966Z,2.00
2018-07-15T15:11:22.685Z,2.22
2018-07-15T15:16:09.509Z,2.37
2018-07-15T15:20:53.143Z,2.15
2018-07-15T15:25:38.164Z,2.35
2018-07-15T15:30:21.612Z,2.02
2018-07-15T15:35:10.827Z,2.47
2018-07-15T15:39:54.592Z,2.20
2018-07-15T15:44:42.864Z,2.20
2018-07-15T15:49:26.431Z,2.40
2018-07-15T15:54:11.222Z,2.60
2018-07-15T15:58:54.887Z,2.20
2018-07-15T16:03:38.652Z,2.58
2018-07-15T16:08:25.590Z,2.10
2018-07-15T16:13:09.311Z,2.70
2018-07-15T16:17:52.905Z,2.70
2018-07-15T16:22:36.635Z,2.53
2018-07-15T16:27:24.196Z,2.70
2018-07-15T16:32:07.956Z,2.72
2018-07-15T16:36:52.846Z,2.20
2018-07-15T16:41:36.703Z,2.50
2018-07-15T16:46:23.421Z,2.70
2018-07-15T16:51:07.099Z,2.50
2018-07-15T16:55:52.342Z,2.80
2018-07-15T17:00:35.771Z,2.90
2018-07-15T17:05:21.232Z,2.33
2018-07-15T17:10:04.857Z,2.93
2018-07-15T17:14:50.728Z,5.67
2018-07-15T17:19:34.478Z,3.67
2018-07-15T17:24:19.162Z,3.50
2018-07-15T17:29:02.789Z,3.80
2018-07-15T17:33:46.653Z,4.30
2018-07-15T17:38:30.111Z,4.63
2018-07-15T17:43:13.794Z,3.53
2018-07-15T17:48:01.369Z,4.13
2018-07-15T17:52:45.026Z,3.47
2018-07-15T17:57:32.276Z,3.80
2018-07-15T18:02:15.945Z,3.63
2018-07-15T18:07:00.433Z,4.10
2018-07-15T18:11:44.102Z,3.67
2018-07-15T18:16:28.936Z,3.90
2018-07-15T18:21:12.438Z,3.87
2018-07-15T18:25:59.647Z,3.80
2018-07-15T18:30:43.437Z,3.30
2018-07-15T18:35:30.636Z,3.13
2018-07-15T18:40:14.303Z,3.23
2018-07-15T18:44:58.660Z,2.97
2018-07-15T18:49:42.220Z,3.57
2018-07-15T18:54:26.166Z,4.30
2018-07-15T18:59:10.162Z,3.90
2018-07-15T19:03:57.646Z,3.30
2018-07-15T19:08:41.369Z,3.17
2018-07-15T19:13:25.067Z,3.40
2018-07-15T19:18:08.752Z,3.30
2018-07-15T19:22:52.580Z,3.57
2018-07-15T19:27:39.450Z,2.93
2018-07-15T19:32:23.030Z,3.00
2018-07-15T19:37:10.358Z,3.27
2018-07-15T19:41:54.279Z,3.17
2018-07-15T19:46:45.348Z,3.07
2018-07-15T19:51:29.202Z,3.00
2018-07-15T19:56:18.171Z,3.57
2018-07-15T20:01:01.804Z,4.17
2018-07-15T20:05:48.750Z,3.40
2018-07-15T20:10:32.217Z,3.47
2018-07-15T20:15:18.886Z,3.57
2018-07-15T20:20:02.511Z,3.30
2018-07-15T20:24:46.169Z,3.53
2018-07-15T20:29:29.614Z,3.03
2018-07-15T20:34:16.950Z,2.97
2018-07-15T20:39:00.494Z,3.00
2018-07-15T20:43:43.927Z,3.17
2018-07-15T20:48:27.382Z,3.43
2018-07-15T20:53:10.942Z,3.00
2018-07-15T20:57:54.691Z,3.60
2018-07-15T21:02:38.240Z,3.00
2018-07-15T21:07:23.133Z,2.97
2018-07-15T21:12:06.936Z,2.97
2018-07-15T21:16:53.803Z,2.90
2018-07-15T21:21:37.636Z,3.13
2018-07-15T21:26:22.773Z,2.60
2018-07-15T21:31:07.352Z,2.50
2018-07-15T21:35:55.276Z,3.03
2018-07-15T21:40:39.116Z,2.37
2018-07-15T21:45:24.027Z,2.47
2018-07-15T21:50:07.931Z,2.43
2018-07-15T21:54:57.593Z,2.80
2018-07-15T21:59:41.345Z,2.80
2018-07-15T22:04:28.910Z,2.80
2018-07-15T22:09:23.448Z,2.60
2018-07-15T22:14:10.269Z,2.80
2018-07-15T22:18:53.917Z,4.07
2018-07-15T22:23:37.559Z,3.40
2018-07-15T22:28:21.218Z,2.70
2018-07-15T22:33:05.115Z,3.07
2018-07-15T22:37:48.668Z,3.20
2018-07-15T22:42:32.304Z,4.03
2018-07-15T22:47:16.010Z,3.10
2018-07-15T22:51:59.514Z,3.43
2018-07-15T22:56:46.654Z,3.20
2018-07-15T23:01:30.357Z,3.33
2018-07-15T23:06:19.801Z,3.00
2018-07-15T23:11:03.357Z,3.20
2018-07-15T23:15:53.722Z,3.13
2018-07-15T23:20:38.456Z,2.80
2018-07-15T23:25:27.055Z,2.83
2018-07-15T23:30:10.694Z,2.53
2018-07-15T23:34:57.908Z,2.50
2018-07-15T23:39:41.470Z,3.07
2018-07-15T23:44:25.241Z,2.97
2018-07-15T23:49:08.664Z,3.03
2018-07-15T23:53:56.077Z,2.60
2018-07-15T23:58:39.723Z,2.70
